Time,TemperatureF,DewpointF,PressureIn,WindDirection,WindDirectionDegrees,WindSpeedMPH,WindSpeedGustMPH,Humidity,HourlyPrecipIn,Conditions,Clouds,dailyrainin,SoftwareType,DateUTC
2013-11-07 00:00:00,62.0,-99.9,-100.00,North,-999,-999.0,-999.0,-999,0.00,,,0.00,,2013-11-07 05:00:00,
2013-11-07 00:55:00,62.0,-99.9,-100.00,North,-999,-999.0,-999.0,-999,0.00,,,0.00,,2013-11-07 05:55:00,
2013-11-07 01:00:00,63.0,-99.9,-100.00,North,-999,-999.0,-999.0,-999,0.00,,,0.00,,2013-11-07 06:00:00,
2013-11-07 01:52:00,63.0,-99.9,-100.00,North,-999,-999.0,-999.0,-999,0.00,,,0.00,,2013-11-07 06:52:00,
2013-11-07 02:00:00,65.0,-99.9,-100.00,North,-999,-999.0,-999.0,-999,0.00,,,0.00,,2013-11-07 07:00:00,
2013-11-07 02:52:00,65.0,-99.9,-100.00,North,-999,-999.0,-999.0,-999,0.00,,,0.00,,2013-11-07 07:52:00,
2013-11-07 03:00:00,62.0,-99.9,-100.00,North,-999,-999.0,-999.0,-999,0.00,,,0.00,,2013-11-07 08:00:00,
2013-11-07 03:53:00,62.0,-99.9,-100.00,North,-999,-999.0,-999.0,-999,0.00,,,0.00,,2013-11-07 08:53:00,
2013-11-07 04:00:00,58.0,-99.9,-100.00,North,-999,-999.0,-999.0,-999,0.03,,,0.03,,2013-11-07 09:00:00,
2013-11-07 04:53:00,58.0,-99.9,-100.00,North,-999,-999.0,-999.0,-999,0.03,,,0.03,,2013-11-07 09:53:00,
2013-11-07 05:00:00,56.0,-99.9,-100.00,North,-999,-999.0,-999.0,-999,0.09,,,0.12,,2013-11-07 10:00:00,
2013-11-07 05:53:00,56.0,-99.9,-100.00,North,-999,-999.0,-999.0,-999,0.09,,,0.12,,2013-11-07 10:53:00,
2013-11-07 06:00:00,51.0,-99.9,-100.00,North,-999,-999.0,-999.0,-999,0.17,,,0.29,,2013-11-07 11:00:00,
2013-11-07 06:52:00,51.0,-99.9,-100.00,North,-999,-999.0,-999.0,-999,0.17,,,0.29,,2013-11-07 11:52:00,
2013-11-07 07:00:00,50.0,-99.9,-100.00,North,-999,-999.0,-999.0,-999,0.07,,,0.36,,2013-11-07 12:00:00,
2013-11-07 07:52:00,50.0,-99.9,-100.00,North,-999,-999.0,-999.0,-999,0.07,,,0.36,,2013-11-07 12:52:00,
2013-11-07 08:00:00,49.0,-99.9,-100.00,North,-999,-999.0,-999.0,-999,0.11,,,0.47,,2013-11-07 13:00:00,
2013-11-07 08:52:00,49.0,-99.9,-100.00,North,-999,-999.0,-999.0,-999,0.11,,,0.47,,2013-11-07 13:52:00,
2013-11-07 09:00:00,47.0,-99.9,-100.00,North,-999,-999.0,-999.0,-999,0.04,,,0.51,,2013-11-07 14:00:00,
2013-11-07 09:52:00,47.0,-99.9,-100.00,North,-999,-999.0,-999.0,-999,0.04,,,0.51,,2013-11-07 14:52:00,
2013-11-07 10:00:00,47.0,-99.9,-100.00,North,-999,-999.0,-999.0,-999,0.01,,,0.52,,2013-11-07 15:00:00,
2013-11-07 10:53:00,47.0,-99.9,-100.00,North,-999,-999.0,-999.0,-999,0.01,,,0.52,,2013-11-07 15:53:00,
2013-11-07 11:00:00,47.0,-99.9,-100.00,North,-999,-999.0,-999.0,-999,0.00,,,0.52,,2013-11-07 16:00:00,
2013-11-07 11:52:00,47.0,-99.9,-100.00,North,-999,-999.0,-999.0,-999,0.00,,,0.52,,2013-11-07 16:52:00,
2013-11-07 12:00:00,48.0,-99.9,-100.00,North,-999,-999.0,-999.0,-999,0.00,,,0.52,,2013-11-07 17:00:00,
2013-11-07 13:00:00,49.0,-99.9,-100.00,North,-999,-999.0,-999.0,-999,0.00,,,0.52,,2013-11-07 18:00:00,
2013-11-07 13:52:00,49.0,-99.9,-100.00,North,-999,-999.0,-999.0,-999,0.00,,,0.52,,2013-11-07 18:52:00,
2013-11-07 14:00:00,49.0,-99.9,-100.00,North,-999,-999.0,-999.0,-999,0.00,,,0.52,,2013-11-07 19:00:00,
2013-11-07 14:52:00,49.0,-99.9,-100.00,North,-999,-999.0,-999.0,-999,0.00,,,0.52,,2013-11-07 19:52:00,
2013-11-07 15:00:00,48.0,-99.9,-100.00,North,-999,-999.0,-999.0,-999,0.00,,,0.52,,2013-11-07 20:00:00,
2013-11-07 15:52:00,48.0,-99.9,-100.00,North,-999,-999.0,-999.0,-999,0.00,,,0.52,,2013-11-07 20:52:00,
2013-11-07 16:00:00,47.0,-99.9,-100.00,North,-999,-999.0,-999.0,-999,0.00,,,0.52,,2013-11-07 21:00:00,
2013-11-07 16:54:00,47.0,-99.9,-100.00,North,-999,-999.0,-999.0,-999,0.00,,,0.52,,2013-11-07 21:54:00,
2013-11-07 17:00:00,47.0,-99.9,-100.00,North,-999,-999.0,-999.0,-999,0.00,,,0.52,,2013-11-07 22:00:00,
2013-11-07 17:53:00,47.0,-99.9,-100.00,North,-999,-999.0,-999.0,-999,0.00,,,0.52,,2013-11-07 22:53:00,
2013-11-07 18:00:00,46.0,-99.9,-100.00,North,-999,-999.0,-999.0,-999,0.00,,,0.52,,2013-11-07 23:00:00,
2013-11-07 18:53:00,46.0,-99.9,-100.00,North,-999,-999.0,-999.0,-999,0.00,,,0.52,,2013-11-07 23:53:00,
2013-11-07 19:00:00,43.0,-99.9,-100.00,North,-999,-999.0,-999.0,-999,0.00,,,0.52,,2013-11-08 00:00:00,
2013-11-07 19:52:00,43.0,-99.9,-100.00,North,-999,-999.0,-999.0,-999,0.00,,,0.52,,2013-11-08 00:52:00,
2013-11-07 20:00:00,43.0,-99.9,-100.00,North,-999,-999.0,-999.0,-999,0.00,,,0.52,,2013-11-08 01:00:00,
2013-11-07 20:52:00,43.0,-99.9,-100.00,North,-999,-999.0,-999.0,-999,0.00,,,0.52,,2013-11-08 01:52:00,
2013-11-07 21:00:00,42.0,-99.9,-100.00,North,-999,-999.0,-999.0,-999,0.00,,,0.52,,2013-11-08 02:00:00,
2013-11-07 21:52:00,42.0,-99.9,-100.00,North,-999,-999.0,-999.0,-999,0.00,,,0.52,,2013-11-08 02:52:00,
2013-11-07 22:00:00,41.0,-99.9,-100.00,North,-999,-999.0,-999.0,-999,0.00,,,0.52,,2013-11-08 03:00:00,
2013-11-07 22:55:00,41.0,-99.9,-100.00,North,-999,-999.0,-999.0,-999,0.00,,,0.52,,2013-11-08 03:55:00,
2013-11-07 23:00:00,41.0,-99.9,-100.00,North,-999,-999.0,-999.0,-999,0.00,,,0.52,,2013-11-08 04:00:00,
2013-11-07 23:54:00,41.0,-99.9,-100.00,North,-999,-999.0,-999.0,-999,0.00,,,0.52,,2013-11-08 04:54:00,